sensor_id;sensor_type;location;lat;lon;timestamp;temperature;humidity
5520;DHT22;2782;52.362;10.012;2023-02-01T00:00:34;17.60;55.30
5520;DHT22;2782;52.362;10.012;2023-02-01T00:01:35;17.60;55.30
5520;DHT22;2782;52.362;10.012;2023-02-01T00:02:36;17.60;55.40
5520;DHT22;2782;52.362;10.012;2023-02-01T00:03:40;17.50;55.30
5520;DHT22;2782;52.362;10.012;2023-02-01T00:04:41;17.60;55.40
5520;DHT22;2782;52.362;10.012;2023-02-01T00:05:43;17.50;55.40
5520;DHT22;2782;52.362;10.012;2023-02-01T00:06:43;17.50;55.30
5520;DHT22;2782;52.362;10.012;2023-02-01T00:07:47;17.50;55.40
5520;DHT22;2782;52.362;10.012;2023-02-01T00:08:52;17.50;55.40
5520;DHT22;2782;52.362;10.012;2023-02-01T00:09:53;17.50;55.40
5520;DHT22;2782;52.362;10.012;2023-02-01T00:10:58;17.50;55.40
5520;DHT22;2782;52.362;10.012;2023-02-01T00:12:00;17.50;55.40
5520;DHT22;2782;52.362;10.012;2023-02-01T00:13:03;17.50;55.40
5520;DHT22;2782;52.362;10.012;2023-02-01T00:14:04;17.50;55.50
5520;DHT22;2782;52.362;10.012;2023-02-01T00:15:09;17.50;55.50
5520;DHT22;2782;52.362;10.012;2023-02-01T00:16:12;17.50;55.40
5520;DHT22;2782;52.362;10.012;2023-02-01T00:17:13;17.50;55.40
5520;DHT22;2782;52.362;10.012;2023-02-01T00:18:14;17.50;55.40
5520;DHT22;2782;52.362;10.012;2023-02-01T00:19:15;17.50;55.40
5520;DHT22;2782;52.362;10.012;2023-02-01T00:20:17;17.50;55.40
5520;DHT22;2782;52.362;10.012;2023-02-01T00:21:19;17.50;55.50
5520;DHT22;2782;52.362;10.012;2023-02-01T00:22:21;17.50;55.50
5520;DHT22;2782;52.362;10.012;2023-02-01T00:23:22;17.50;55.50
5520;DHT22;2782;52.362;10.012;2023-02-01T00:24:23;17.40;55.40
5520;DHT22;2782;52.362;10.012;2023-02-01T00:25:24;17.50;55.50
5520;DHT22;2782;52.362;10.012;2023-02-01T00:26:30;17.50;55.50
5520;DHT22;2782;52.362;10.012;2023-02-01T00:27:33;17.40;55.50
5520;DHT22;2782;52.362;10.012;2023-02-01T00:28:34;17.40;55.50
5520;DHT22;2782;52.362;10.012;2023-02-01T00:29:35;17.40;55.50
5520;DHT22;2782;52.362;10.012;2023-02-01T00:30:38;17.40;55.50
5520;DHT22;2782;52.362;10.012;2023-02-01T00:31:39;17.40;55.50
5520;DHT22;2782;52.362;10.012;2023-02-01T00:32:40;17.40;55.50
5520;DHT22;2782;52.362;10.012;2023-02-01T00:33:41;17.40;55.50
5520;DHT22;2782;52.362;10.012;2023-02-01T00:34:43;17.40;55.50
5520;DHT22;2782;52.362;10.012;2023-02-01T00:35:43;17.40;55.50
5520;DHT22;2782;52.362;10.012;2023-02-01T00:36:45;17.40;55.50
5520;DHT22;2782;52.362;10.012;2023-02-01T00:37:46;17.40;55.50
5520;DHT22;2782;52.362;10.012;2023-02-01T00:38:48;17.40;55.50
5520;DHT22;2782;52.362;10.012;2023-02-01T00:39:48;17.40;55.50
5520;DHT22;2782;52.362;10.012;2023-02-01T00:40:50;17.40;55.50
5520;DHT22;2782;52.362;10.012;2023-02-01T00:41:51;17.40;55.50
5520;DHT22;2782;52.362;10.012;2023-02-01T00:42:53;17.40;55.50
5520;DHT22;2782;52.362;10.012;2023-02-01T00:43:53;17.40;55.50
5520;DHT22;2782;52.362;10.012;2023-02-01T00:44:55;17.40;55.50
5520;DHT22;2782;52.362;10.012;2023-02-01T00:45:57;17.40;55.50
5520;DHT22;2782;52.362;10.012;2023-02-01T00:46:59;17.40;55.50
5520;DHT22;2782;52.362;10.012;2023-02-01T00:48:01;17.40;55.50
5520;DHT22;2782;52.362;10.012;2023-02-01T00:49:02;17.30;55.40
5520;DHT22;2782;52.362;10.012;2023-02-01T00:50:04;17.40;55.50
5520;DHT22;2782;52.362;10.012;2023-02-01T00:51:06;17.30;55.40
5520;DHT22;2782;52.362;10.012;2023-02-01T00:52:08;17.30;55.40
5520;DHT22;2782;52.362;10.012;2023-02-01T00:53:09;17.30;55.40
5520;DHT22;2782;52.362;10.012;2023-02-01T00:54:11;17.30;55.40
5520;DHT22;2782;52.362;10.012;2023-02-01T00:55:12;17.30;55.40
5520;DHT22;2782;52.362;10.012;2023-02-01T00:56:13;17.30;55.40
5520;DHT22;2782;52.362;10.012;2023-02-01T00:57:14;17.30;55.40
5520;DHT22;2782;52.362;10.012;2023-02-01T00:58:16;17.30;55.40
5520;DHT22;2782;52.362;10.012;2023-02-01T00:59:16;17.30;55.40
5520;DHT22;2782;52.362;10.012;2023-02-01T01:00:18;17.30;55.40
5520;DHT22;2782;52.362;10.012;2023-02-01T01:01:22;17.30;55.40
5520;DHT22;2782;52.362;10.012;2023-02-01T01:02:26;17.30;55.40
5520;DHT22;2782;52.362;10.012;2023-02-01T01:03:27;17.30;55.40
5520;DHT22;2782;52.362;10.012;2023-02-01T01:04:29;17.30;55.40
5520;DHT22;2782;52.362;10.012;2023-02-01T01:05:30;17.30;55.40
5520;DHT22;2782;52.362;10.012;2023-02-01T01:06:33;17.30;55.40
5520;DHT22;2782;52.362;10.012;2023-02-01T01:07:34;17.30;55.40
5520;DHT22;2782;52.362;10.012;2023-02-01T01:08:37;17.30;55.40
5520;DHT22;2782;52.362;10.012;2023-02-01T01:09:38;17.30;55.40
5520;DHT22;2782;52.362;10.012;2023-02-01T01:10:40;17.30;55.40
5520;DHT22;2782;52.362;10.012;2023-02-01T01:11:40;17.30;55.40
5520;DHT22;2782;52.362;10.012;2023-02-01T01:12:42;17.30;55.40
5520;DHT22;2782;52.362;10.012;2023-02-01T01:13:45;17.30;55.40
5520;DHT22;2782;52.362;10.012;2023-02-01T01:14:47;17.20;55.30
5520;DHT22;2782;52.362;10.012;2023-02-01T01:15:47;17.20;55.30
5520;DHT22;2782;52.362;10.012;2023-02-01T01:16:50;17.20;55.30
5520;DHT22;2782;52.362;10.012;2023-02-01T01:17:51;17.20;55.30
5520;DHT22;2782;52.362;10.012;2023-02-01T01:18:53;17.20;55.40
5520;DHT22;2782;52.362;10.012;2023-02-01T01:19:55;17.20;55.40
5520;DHT22;2782;52.362;10.012;2023-02-01T01:20:56;17.20;55.40
5520;DHT22;2782;52.362;10.012;2023-02-01T01:21:57;17.20;55.40
5520;DHT22;2782;52.362;10.012;2023-02-01T01:22:59;17.20;55.40
5520;DHT22;2782;52.362;10.012;2023-02-01T01:23:59;17.20;55.90
5520;DHT22;2782;52.362;10.012;2023-02-01T01:25:01;17.20;55.40
5520;DHT22;2782;52.362;10.012;2023-02-01T01:26:05;17.20;55.40
5520;DHT22;2782;52.362;10.012;2023-02-01T01:27:06;17.20;55.40
5520;DHT22;2782;52.362;10.012;2023-02-01T01:28:07;17.20;55.40
5520;DHT22;2782;52.362;10.012;2023-02-01T01:29:09;17.20;55.40
5520;DHT22;2782;52.362;10.012;2023-02-01T01:30:10;17.20;55.40
5520;DHT22;2782;52.362;10.012;2023-02-01T01:31:14;17.20;55.30
5520;DHT22;2782;52.362;10.012;2023-02-01T01:32:16;17.10;55.30
5520;DHT22;2782;52.362;10.012;2023-02-01T01:33:18;17.20;55.40
5520;DHT22;2782;52.362;10.012;2023-02-01T01:34:19;17.20;55.40
5520;DHT22;2782;52.362;10.012;2023-02-01T01:35:20;17.20;55.40
5520;DHT22;2782;52.362;10.012;2023-02-01T01:36:21;17.20;55.40
5520;DHT22;2782;52.362;10.012;2023-02-01T01:37:23;17.20;55.40
5520;DHT22;2782;52.362;10.012;2023-02-01T01:38:24;17.20;56.00
5520;DHT22;2782;52.362;10.012;2023-02-01T01:39:25;17.10;55.30
5520;DHT22;2782;52.362;10.012;2023-02-01T01:40:27;17.20;55.40
5520;DHT22;2782;52.362;10.012;2023-02-01T01:41:30;17.10;55.30
5520;DHT22;2782;52.362;10.012;2023-02-01T01:42:36;17.10;55.30
5520;DHT22;2782;52.362;10.012;2023-02-01T01:43:47;17.10;55.30
5520;DHT22;2782;52.362;10.012;2023-02-01T01:45:00;17.10;55.30
5520;DHT22;2782;52.362;10.012;2023-02-01T01:46:01;17.10;55.30
5520;DHT22;2782;52.362;10.012;2023-02-01T01:47:02;17.10;55.30
5520;DHT22;2782;52.362;10.012;2023-02-01T01:48:08;17.10;55.30
5520;DHT22;2782;52.362;10.012;2023-02-01T01:49:13;17.10;55.30
5520;DHT22;2782;52.362;10.012;2023-02-01T01:50:19;17.10;55.30
5520;DHT22;2782;52.362;10.012;2023-02-01T01:51:23;17.10;55.30
5520;DHT22;2782;52.362;10.012;2023-02-01T01:52:26;17.00;55.30
5520;DHT22;2782;52.362;10.012;2023-02-01T01:53:28;17.10;55.40
5520;DHT22;2782;52.362;10.012;2023-02-01T01:54:33;17.10;55.40
5520;DHT22;2782;52.362;10.012;2023-02-01T01:55:38;17.10;55.40
5520;DHT22;2782;52.362;10.012;2023-02-01T01:56:41;17.10;55.40
5520;DHT22;2782;52.362;10.012;2023-02-01T01:57:44;17.10;55.40
5520;DHT22;2782;52.362;10.012;2023-02-01T01:58:48;17.00;55.30
5520;DHT22;2782;52.362;10.012;2023-02-01T01:59:52;17.00;55.40
5520;DHT22;2782;52.362;10.012;2023-02-01T02:00:56;17.00;55.30
5520;DHT22;2782;52.362;10.012;2023-02-01T02:01:56;17.00;55.30
5520;DHT22;2782;52.362;10.012;2023-02-01T02:03:00;17.00;55.40
5520;DHT22;2782;52.362;10.012;2023-02-01T02:04:05;17.00;55.40
5520;DHT22;2782;52.362;10.012;2023-02-01T02:05:08;17.00;55.40
5520;DHT22;2782;52.362;10.012;2023-02-01T02:06:14;17.00;55.40
5520;DHT22;2782;52.362;10.012;2023-02-01T02:07:22;17.00;55.40
5520;DHT22;2782;52.362;10.012;2023-02-01T02:08:25;17.00;55.40
5520;DHT22;2782;52.362;10.012;2023-02-01T02:09:26;17.00;55.40
5520;DHT22;2782;52.362;10.012;2023-02-01T02:10:28;17.00;55.40
5520;DHT22;2782;52.362;10.012;2023-02-01T02:11:43;17.00;55.40
5520;DHT22;2782;52.362;10.012;2023-02-01T02:12:47;17.00;55.40
5520;DHT22;2782;52.362;10.012;2023-02-01T02:13:51;17.00;55.40
5520;DHT22;2782;52.362;10.012;2023-02-01T02:14:53;17.00;55.40
5520;DHT22;2782;52.362;10.012;2023-02-01T02:16:05;17.00;55.40
5520;DHT22;2782;52.362;10.012;2023-02-01T02:17:28;17.00;55.40
5520;DHT22;2782;52.362;10.012;2023-02-01T02:18:38;17.00;55.40
5520;DHT22;2782;52.362;10.012;2023-02-01T02:21:46;16.90;55.30
5520;DHT22;2782;52.362;10.012;2023-02-01T02:24:52;16.90;55.90
5520;DHT22;2782;52.362;10.012;2023-02-01T02:26:24;16.90;55.40
5520;DHT22;2782;52.362;10.012;2023-02-01T02:27:37;16.90;55.40
5520;DHT22;2782;52.362;10.012;2023-02-01T02:29:20;16.90;55.50
5520;DHT22;2782;52.362;10.012;2023-02-01T02:30:46;16.90;55.50
5520;DHT22;2782;52.362;10.012;2023-02-01T02:32:07;16.90;55.50
5520;DHT22;2782;52.362;10.012;2023-02-01T02:33:41;16.90;55.50
5520;DHT22;2782;52.362;10.012;2023-02-01T02:34:53;16.90;55.60
5520;DHT22;2782;52.362;10.012;2023-02-01T02:36:00;16.90;55.50
5520;DHT22;2782;52.362;10.012;2023-02-01T02:37:09;16.90;55.60
5520;DHT22;2782;52.362;10.012;2023-02-01T02:38:20;16.90;55.50
5520;DHT22;2782;52.362;10.012;2023-02-01T02:39:31;16.90;55.50
5520;DHT22;2782;52.362;10.012;2023-02-01T02:40:39;16.90;55.50
5520;DHT22;2782;52.362;10.012;2023-02-01T02:41:48;16.90;55.50
5520;DHT22;2782;52.362;10.012;2023-02-01T02:43:12;16.90;55.50
5520;DHT22;2782;52.362;10.012;2023-02-01T02:44:37;16.90;55.40
5520;DHT22;2782;52.362;10.012;2023-02-01T02:46:03;16.90;55.40
5520;DHT22;2782;52.362;10.012;2023-02-01T02:47:25;16.90;55.40
5520;DHT22;2782;52.362;10.012;2023-02-01T02:48:35;16.90;55.40
5520;DHT22;2782;52.362;10.012;2023-02-01T02:49:42;16.90;55.40
5520;DHT22;2782;52.362;10.012;2023-02-01T02:51:07;16.90;55.40
5520;DHT22;2782;52.362;10.012;2023-02-01T02:52:28;16.90;55.40
5520;DHT22;2782;52.362;10.012;2023-02-01T02:53:55;16.90;55.40
5520;DHT22;2782;52.362;10.012;2023-02-01T02:55:16;16.90;55.40
5520;DHT22;2782;52.362;10.012;2023-02-01T02:56:19;16.90;55.40
5520;DHT22;2782;52.362;10.012;2023-02-01T02:57:41;16.80;55.30
5520;DHT22;2782;52.362;10.012;2023-02-01T02:59:03;16.90;55.40
5520;DHT22;2782;52.362;10.012;2023-02-01T03:00:27;16.90;55.40
5520;DHT22;2782;52.362;10.012;2023-02-01T03:01:47;16.90;55.40
5520;DHT22;2782;52.362;10.012;2023-02-01T03:03:07;16.90;55.40
5520;DHT22;2782;52.362;10.012;2023-02-01T03:04:27;16.90;55.40
5520;DHT22;2782;52.362;10.012;2023-02-01T03:05:32;16.90;55.40
5520;DHT22;2782;52.362;10.012;2023-02-01T03:06:34;16.90;55.40
5520;DHT22;2782;52.362;10.012;2023-02-01T03:08:00;16.80;55.30
5520;DHT22;2782;52.362;10.012;2023-02-01T03:09:06;16.90;55.40
5520;DHT22;2782;52.362;10.012;2023-02-01T03:10:16;16.90;55.30
5520;DHT22;2782;52.362;10.012;2023-02-01T03:11:19;16.90;55.30
5520;DHT22;2782;52.362;10.012;2023-02-01T03:12:21;16.90;55.30
5520;DHT22;2782;52.362;10.012;2023-02-01T03:13:45;16.90;55.30
5520;DHT22;2782;52.362;10.012;2023-02-01T03:14:48;16.90;55.30
5520;DHT22;2782;52.362;10.012;2023-02-01T03:15:56;16.90;55.30
5520;DHT22;2782;52.362;10.012;2023-02-01T03:17:01;16.90;55.90
5520;DHT22;2782;52.362;10.012;2023-02-01T03:18:11;16.90;55.30
5520;DHT22;2782;52.362;10.012;2023-02-01T03:19:17;16.90;55.20
5520;DHT22;2782;52.362;10.012;2023-02-01T03:20:22;16.90;55.30
5520;DHT22;2782;52.362;10.012;2023-02-01T03:21:28;16.90;55.20
5520;DHT22;2782;52.362;10.012;2023-02-01T03:22:32;16.90;55.20
5520;DHT22;2782;52.362;10.012;2023-02-01T03:23:36;16.90;55.20
5520;DHT22;2782;52.362;10.012;2023-02-01T03:24:41;16.90;55.20
5520;DHT22;2782;52.362;10.012;2023-02-01T03:25:43;16.90;55.20
5520;DHT22;2782;52.362;10.012;2023-02-01T03:26:48;16.90;55.10
5520;DHT22;2782;52.362;10.012;2023-02-01T03:27:55;16.90;55.10
5520;DHT22;2782;52.362;10.012;2023-02-01T03:29:05;16.90;55.10
5520;DHT22;2782;52.362;10.012;2023-02-01T03:30:11;16.90;55.10
5520;DHT22;2782;52.362;10.012;2023-02-01T03:31:18;16.90;55.10
5520;DHT22;2782;52.362;10.012;2023-02-01T03:32:20;16.90;55.10
5520;DHT22;2782;52.362;10.012;2023-02-01T03:33:23;16.90;55.10
5520;DHT22;2782;52.362;10.012;2023-02-01T03:34:26;16.90;55.10
5520;DHT22;2782;52.362;10.012;2023-02-01T03:35:32;16.90;55.10
5520;DHT22;2782;52.362;10.012;2023-02-01T03:36:38;16.90;55.00
5520;DHT22;2782;52.362;10.012;2023-02-01T03:37:41;16.90;55.10
5520;DHT22;2782;52.362;10.012;2023-02-01T03:38:48;16.90;55.10
5520;DHT22;2782;52.362;10.012;2023-02-01T03:39:56;16.90;55.00
5520;DHT22;2782;52.362;10.012;2023-02-01T03:41:05;16.90;55.00
5520;DHT22;2782;52.362;10.012;2023-02-01T03:42:14;16.90;55.00
5520;DHT22;2782;52.362;10.012;2023-02-01T03:43:18;16.90;55.00
5520;DHT22;2782;52.362;10.012;2023-02-01T03:44:23;16.90;55.00
5520;DHT22;2782;52.362;10.012;2023-02-01T03:45:28;16.90;55.00
5520;DHT22;2782;52.362;10.012;2023-02-01T03:46:35;16.90;55.00
5520;DHT22;2782;52.362;10.012;2023-02-01T03:47:39;16.90;55.00
5520;DHT22;2782;52.362;10.012;2023-02-01T03:48:43;16.90;55.00
5520;DHT22;2782;52.362;10.012;2023-02-01T03:49:49;16.90;55.00
5520;DHT22;2782;52.362;10.012;2023-02-01T03:50:56;16.90;55.00
5520;DHT22;2782;52.362;10.012;2023-02-01T03:51:58;16.90;55.00
5520;DHT22;2782;52.362;10.012;2023-02-01T03:53:03;16.90;55.00
5520;DHT22;2782;52.362;10.012;2023-02-01T03:54:07;16.90;55.00
5520;DHT22;2782;52.362;10.012;2023-02-01T03:55:11;16.90;55.00
5520;DHT22;2782;52.362;10.012;2023-02-01T03:56:13;16.90;55.00
5520;DHT22;2782;52.362;10.012;2023-02-01T03:57:31;16.90;55.00
5520;DHT22;2782;52.362;10.012;2023-02-01T03:58:33;16.90;55.00
5520;DHT22;2782;52.362;10.012;2023-02-01T03:59:38;16.90;55.00
5520;DHT22;2782;52.362;10.012;2023-02-01T04:00:39;16.90;55.00
5520;DHT22;2782;52.362;10.012;2023-02-01T04:01:41;16.90;55.00
5520;DHT22;2782;52.362;10.012;2023-02-01T04:02:42;16.90;55.00
5520;DHT22;2782;52.362;10.012;2023-02-01T04:03:44;16.90;55.00
5520;DHT22;2782;52.362;10.012;2023-02-01T04:04:44;16.90;55.00
5520;DHT22;2782;52.362;10.012;2023-02-01T04:05:46;16.90;55.00
5520;DHT22;2782;52.362;10.012;2023-02-01T04:06:49;16.90;55.00
5520;DHT22;2782;52.362;10.012;2023-02-01T04:07:51;16.90;55.00
5520;DHT22;2782;52.362;10.012;2023-02-01T04:08:52;16.90;54.90
5520;DHT22;2782;52.362;10.012;2023-02-01T04:09:53;16.90;54.90
5520;DHT22;2782;52.362;10.012;2023-02-01T04:10:54;16.90;54.90
5520;DHT22;2782;52.362;10.012;2023-02-01T04:11:55;16.90;54.90
5520;DHT22;2782;52.362;10.012;2023-02-01T04:12:56;16.90;54.90
5520;DHT22;2782;52.362;10.012;2023-02-01T04:13:58;16.90;54.90
5520;DHT22;2782;52.362;10.012;2023-02-01T04:14:58;16.90;54.90
5520;DHT22;2782;52.362;10.012;2023-02-01T04:16:00;16.90;54.80
5520;DHT22;2782;52.362;10.012;2023-02-01T04:17:00;16.90;54.90
5520;DHT22;2782;52.362;10.012;2023-02-01T04:18:02;16.90;54.80
5520;DHT22;2782;52.362;10.012;2023-02-01T04:19:03;16.90;54.90
5520;DHT22;2782;52.362;10.012;2023-02-01T04:20:05;16.90;54.90
5520;DHT22;2782;52.362;10.012;2023-02-01T04:21:05;16.90;54.80
5520;DHT22;2782;52.362;10.012;2023-02-01T04:22:08;17.00;54.90
5520;DHT22;2782;52.362;10.012;2023-02-01T04:23:09;16.90;54.80
5520;DHT22;2782;52.362;10.012;2023-02-01T04:24:11;17.00;54.90
5520;DHT22;2782;52.362;10.012;2023-02-01T04:25:11;17.00;54.90
5520;DHT22;2782;52.362;10.012;2023-02-01T04:26:13;17.00;54.90
5520;DHT22;2782;52.362;10.012;2023-02-01T04:27:13;17.00;54.90
5520;DHT22;2782;52.362;10.012;2023-02-01T04:28:15;16.90;54.80
5520;DHT22;2782;52.362;10.012;2023-02-01T04:29:16;17.00;54.90
5520;DHT22;2782;52.362;10.012;2023-02-01T04:30:17;17.00;54.90
5520;DHT22;2782;52.362;10.012;2023-02-01T04:31:18;17.00;54.90
5520;DHT22;2782;52.362;10.012;2023-02-01T04:32:25;17.00;54.90
5520;DHT22;2782;52.362;10.012;2023-02-01T04:33:26;17.00;54.90
5520;DHT22;2782;52.362;10.012;2023-02-01T04:34:27;17.00;54.90
5520;DHT22;2782;52.362;10.012;2023-02-01T04:35:28;16.90;54.80
5520;DHT22;2782;52.362;10.012;2023-02-01T04:36:29;17.00;54.90
5520;DHT22;2782;52.362;10.012;2023-02-01T04:37:32;16.90;54.80
5520;DHT22;2782;52.362;10.012;2023-02-01T04:38:33;17.00;54.80
5520;DHT22;2782;52.362;10.012;2023-02-01T04:39:34;17.00;54.80
5520;DHT22;2782;52.362;10.012;2023-02-01T04:40:35;16.90;54.70
5520;DHT22;2782;52.362;10.012;2023-02-01T04:41:37;16.90;54.70
5520;DHT22;2782;52.362;10.012;2023-02-01T04:42:38;16.90;54.70
5520;DHT22;2782;52.362;10.012;2023-02-01T04:43:39;16.90;54.70
5520;DHT22;2782;52.362;10.012;2023-02-01T04:44:40;16.90;54.70
5520;DHT22;2782;52.362;10.012;2023-02-01T04:45:46;16.90;54.70
5520;DHT22;2782;52.362;10.012;2023-02-01T04:46:47;16.90;54.70
5520;DHT22;2782;52.362;10.012;2023-02-01T04:47:49;16.90;54.70
5520;DHT22;2782;52.362;10.012;2023-02-01T04:48:49;16.90;54.70
5520;DHT22;2782;52.362;10.012;2023-02-01T04:49:51;16.90;54.70
5520;DHT22;2782;52.362;10.012;2023-02-01T04:50:51;16.90;54.70
5520;DHT22;2782;52.362;10.012;2023-02-01T04:51:53;16.90;54.70
5520;DHT22;2782;52.362;10.012;2023-02-01T04:52:55;16.90;54.70
5520;DHT22;2782;52.362;10.012;2023-02-01T04:53:56;16.90;54.80
5520;DHT22;2782;52.362;10.012;2023-02-01T04:54:57;16.90;54.70
5520;DHT22;2782;52.362;10.012;2023-02-01T04:56:00;16.90;54.70
5520;DHT22;2782;52.362;10.012;2023-02-01T04:57:01;16.90;54.70
5520;DHT22;2782;52.362;10.012;2023-02-01T04:58:02;16.90;54.70
5520;DHT22;2782;52.362;10.012;2023-02-01T04:59:03;16.90;54.70
5520;DHT22;2782;52.362;10.012;2023-02-01T05:00:08;16.90;54.70
5520;DHT22;2782;52.362;10.012;2023-02-01T05:01:09;16.90;54.80
5520;DHT22;2782;52.362;10.012;2023-02-01T05:02:10;16.90;54.80
5520;DHT22;2782;52.362;10.012;2023-02-01T05:03:11;16.90;54.80
5520;DHT22;2782;52.362;10.012;2023-02-01T05:04:12;16.90;55.30
5520;DHT22;2782;52.362;10.012;2023-02-01T05:05:13;16.90;54.80
5520;DHT22;2782;52.362;10.012;2023-02-01T05:06:15;16.90;54.80
5520;DHT22;2782;52.362;10.012;2023-02-01T05:07:15;16.90;54.90
5520;DHT22;2782;52.362;10.012;2023-02-01T05:08:18;16.90;54.90
5520;DHT22;2782;52.362;10.012;2023-02-01T05:09:19;16.90;54.90
5520;DHT22;2782;52.362;10.012;2023-02-01T05:10:22;16.90;54.90
5520;DHT22;2782;52.362;10.012;2023-02-01T05:11:22;16.90;54.90
5520;DHT22;2782;52.362;10.012;2023-02-01T05:12:43;16.90;54.90
5520;DHT22;2782;52.362;10.012;2023-02-01T05:14:02;16.90;55.00
5520;DHT22;2782;52.362;10.012;2023-02-01T05:15:04;16.80;54.90
5520;DHT22;2782;52.362;10.012;2023-02-01T05:16:05;16.90;55.00
5520;DHT22;2782;52.362;10.012;2023-02-01T05:17:07;16.90;55.00
5520;DHT22;2782;52.362;10.012;2023-02-01T05:18:08;16.90;55.00
5520;DHT22;2782;52.362;10.012;2023-02-01T05:19:10;16.90;55.00
5520;DHT22;2782;52.362;10.012;2023-02-01T05:20:11;16.90;55.00
5520;DHT22;2782;52.362;10.012;2023-02-01T05:21:12;16.90;55.00
5520;DHT22;2782;52.362;10.012;2023-02-01T05:22:13;16.90;55.00
5520;DHT22;2782;52.362;10.012;2023-02-01T05:23:15;16.90;55.00
5520;DHT22;2782;52.362;10.012;2023-02-01T05:24:17;16.90;55.10
5520;DHT22;2782;52.362;10.012;2023-02-01T05:25:20;16.90;55.10
5520;DHT22;2782;52.362;10.012;2023-02-01T05:26:21;16.90;55.10
5520;DHT22;2782;52.362;10.012;2023-02-01T05:27:23;16.90;55.10
5520;DHT22;2782;52.362;10.012;2023-02-01T05:28:24;16.90;55.10
5520;DHT22;2782;52.362;10.012;2023-02-01T05:29:25;17.00;55.20
5520;DHT22;2782;52.362;10.012;2023-02-01T05:30:27;16.90;55.10
5520;DHT22;2782;52.362;10.012;2023-02-01T05:31:27;16.90;55.10
5520;DHT22;2782;52.362;10.012;2023-02-01T05:32:29;17.00;55.30
5520;DHT22;2782;52.362;10.012;2023-02-01T05:33:29;17.00;55.20
5520;DHT22;2782;52.362;10.012;2023-02-01T05:34:31;17.00;55.20
5520;DHT22;2782;52.362;10.012;2023-02-01T05:35:32;17.00;55.20
5520;DHT22;2782;52.362;10.012;2023-02-01T05:36:33;17.00;55.30
5520;DHT22;2782;52.362;10.012;2023-02-01T05:37:34;17.00;55.10
5520;DHT22;2782;52.362;10.012;2023-02-01T05:38:36;17.00;55.20
5520;DHT22;2782;52.362;10.012;2023-02-01T05:39:37;17.00;55.10
5520;DHT22;2782;52.362;10.012;2023-02-01T05:40:39;17.00;55.20
5520;DHT22;2782;52.362;10.012;2023-02-01T05:41:40;17.00;55.20
5520;DHT22;2782;52.362;10.012;2023-02-01T05:42:42;17.00;55.30
5520;DHT22;2782;52.362;10.012;2023-02-01T05:43:42;17.00;55.40
5520;DHT22;2782;52.362;10.012;2023-02-01T05:44:44;17.00;55.50
5520;DHT22;2782;52.362;10.012;2023-02-01T05:45:45;17.10;56.10
5520;DHT22;2782;52.362;10.012;2023-02-01T05:46:46;17.10;56.20
5520;DHT22;2782;52.362;10.012;2023-02-01T05:47:47;17.10;56.40
5520;DHT22;2782;52.362;10.012;2023-02-01T05:48:49;17.10;56.60
5520;DHT22;2782;52.362;10.012;2023-02-01T05:49:49;17.10;57.00
5520;DHT22;2782;52.362;10.012;2023-02-01T05:50:51;17.20;57.10
5520;DHT22;2782;52.362;10.012;2023-02-01T05:51:51;17.10;57.70
5520;DHT22;2782;52.362;10.012;2023-02-01T05:52:53;17.20;58.10
5520;DHT22;2782;52.362;10.012;2023-02-01T05:53:54;17.20;58.30
5520;DHT22;2782;52.362;10.012;2023-02-01T05:54:56;17.20;58.60
5520;DHT22;2782;52.362;10.012;2023-02-01T05:55:57;17.20;58.90
5520;DHT22;2782;52.362;10.012;2023-02-01T05:56:59;17.20;58.90
5520;DHT22;2782;52.362;10.012;2023-02-01T05:57:59;17.30;59.10
5520;DHT22;2782;52.362;10.012;2023-02-01T05:59:01;17.30;59.40
5520;DHT22;2782;52.362;10.012;2023-02-01T06:00:02;17.30;59.50
5520;DHT22;2782;52.362;10.012;2023-02-01T06:01:04;17.30;59.60
5520;DHT22;2782;52.362;10.012;2023-02-01T06:02:05;17.30;59.80
5520;DHT22;2782;52.362;10.012;2023-02-01T06:03:07;17.30;60.00
5520;DHT22;2782;52.362;10.012;2023-02-01T06:04:07;17.30;60.00
5520;DHT22;2782;52.362;10.012;2023-02-01T06:05:09;17.30;60.10
5520;DHT22;2782;52.362;10.012;2023-02-01T06:06:09;17.30;60.30
5520;DHT22;2782;52.362;10.012;2023-02-01T06:07:11;17.30;60.00
5520;DHT22;2782;52.362;10.012;2023-02-01T06:08:12;17.30;60.20
5520;DHT22;2782;52.362;10.012;2023-02-01T06:09:14;17.30;60.30
5520;DHT22;2782;52.362;10.012;2023-02-01T06:10:16;17.40;60.60
5520;DHT22;2782;52.362;10.012;2023-02-01T06:11:18;17.40;60.70
5520;DHT22;2782;52.362;10.012;2023-02-01T06:12:19;17.40;60.70
5520;DHT22;2782;52.362;10.012;2023-02-01T06:13:20;17.40;60.80
5520;DHT22;2782;52.362;10.012;2023-02-01T06:14:21;17.40;60.70
5520;DHT22;2782;52.362;10.012;2023-02-01T06:15:24;17.40;60.90
5520;DHT22;2782;52.362;10.012;2023-02-01T06:16:25;17.40;60.80
5520;DHT22;2782;52.362;10.012;2023-02-01T06:17:27;17.40;60.80
5520;DHT22;2782;52.362;10.012;2023-02-01T06:18:28;17.40;60.90
5520;DHT22;2782;52.362;10.012;2023-02-01T06:19:30;17.40;61.00
5520;DHT22;2782;52.362;10.012;2023-02-01T06:20:31;17.40;61.10
5520;DHT22;2782;52.362;10.012;2023-02-01T06:21:32;17.40;61.10
5520;DHT22;2782;52.362;10.012;2023-02-01T06:22:33;17.40;61.10
5520;DHT22;2782;52.362;10.012;2023-02-01T06:23:36;17.40;61.30
5520;DHT22;2782;52.362;10.012;2023-02-01T06:24:36;17.40;61.20
5520;DHT22;2782;52.362;10.012;2023-02-01T06:25:39;17.50;61.60
5520;DHT22;2782;52.362;10.012;2023-02-01T06:26:40;17.40;61.40
5520;DHT22;2782;52.362;10.012;2023-02-01T06:27:42;17.50;61.40
5520;DHT22;2782;52.362;10.012;2023-02-01T06:28:45;17.40;61.40
5520;DHT22;2782;52.362;10.012;2023-02-01T06:29:46;17.50;61.10
5520;DHT22;2782;52.362;10.012;2023-02-01T06:30:47;17.50;61.30
5520;DHT22;2782;52.362;10.012;2023-02-01T06:31:49;17.50;61.20
5520;DHT22;2782;52.362;10.012;2023-02-01T06:32:51;17.50;61.00
5520;DHT22;2782;52.362;10.012;2023-02-01T06:33:54;17.50;59.50
5520;DHT22;2782;52.362;10.012;2023-02-01T06:34:55;17.50;58.40
5520;DHT22;2782;52.362;10.012;2023-02-01T06:35:57;17.50;59.20
5520;DHT22;2782;52.362;10.012;2023-02-01T06:36:59;17.40;59.10
5520;DHT22;2782;52.362;10.012;2023-02-01T06:38:00;17.50;59.70
5520;DHT22;2782;52.362;10.012;2023-02-01T06:39:01;17.50;59.40
5520;DHT22;2782;52.362;10.012;2023-02-01T06:40:03;17.40;58.80
5520;DHT22;2782;52.362;10.012;2023-02-01T06:41:06;17.40;58.40
5520;DHT22;2782;52.362;10.012;2023-02-01T06:42:07;17.40;58.60
5520;DHT22;2782;52.362;10.012;2023-02-01T06:43:08;17.40;58.60
5520;DHT22;2782;52.362;10.012;2023-02-01T06:44:09;17.40;58.60
5520;DHT22;2782;52.362;10.012;2023-02-01T06:45:11;17.40;58.90
5520;DHT22;2782;52.362;10.012;2023-02-01T06:46:12;17.40;59.30
5520;DHT22;2782;52.362;10.012;2023-02-01T06:47:14;17.40;58.60
5520;DHT22;2782;52.362;10.012;2023-02-01T06:48:15;17.40;58.30
5520;DHT22;2782;52.362;10.012;2023-02-01T06:49:16;17.40;58.30
5520;DHT22;2782;52.362;10.012;2023-02-01T06:50:18;17.40;57.60
5520;DHT22;2782;52.362;10.012;2023-02-01T06:51:22;17.30;58.00
5520;DHT22;2782;52.362;10.012;2023-02-01T06:52:23;17.30;57.30
5520;DHT22;2782;52.362;10.012;2023-02-01T06:53:25;17.30;57.10
5520;DHT22;2782;52.362;10.012;2023-02-01T06:54:26;17.30;56.90